createdAt,value
2022-08-19T00:01:28.819Z,100392.03
2022-08-19T00:03:32.875Z,100384.41
2022-08-19T00:05:36.040Z,100396.94
2022-08-19T00:07:38.891Z,100399.22
2022-08-19T00:09:41.743Z,100394.66
2022-08-19T00:11:45.731Z,100399.22
2022-08-19T00:13:49.598Z,100409.16
2022-08-19T00:15:52.831Z,100407.03
2022-08-19T00:17:55.720Z,100410.63
2022-08-19T00:19:58.460Z,100420.38
2022-08-19T00:22:01.307Z,100424.91
2022-08-19T00:24:04.346Z,100430.44
2022-08-19T00:26:08.278Z,100427.84
2022-08-19T00:28:11.017Z,100429.31
2022-08-19T00:30:14.006Z,100438.22
2022-08-19T00:32:16.745Z,100437.25
2022-08-19T00:34:20.990Z,100429.75
2022-08-19T00:36:23.600Z,100444.38
2022-08-19T00:38:29.641Z,100446.69
2022-08-19T00:40:40.145Z,100443.56
2022-08-19T00:42:43.004Z,100443.09
2022-08-19T00:44:45.760Z,100444.34
2022-08-19T00:47:07.742Z,100460.75
2022-08-19T00:49:57.367Z,100458.63
2022-08-19T00:52:07.803Z,100452.91
2022-08-19T00:54:10.952Z,100461.50
2022-08-19T00:56:13.755Z,100461.97
2022-08-19T00:58:19.395Z,100469.28
2022-08-19T01:00:24.539Z,100478.69
2022-08-19T01:02:28.740Z,100484.84
2022-08-19T01:04:31.394Z,100485.50
2022-08-19T01:06:36.879Z,100480.91
2022-08-19T01:08:39.681Z,100489.34
2022-08-19T01:10:47.404Z,100478.56
2022-08-19T01:12:51.534Z,100491.00
2022-08-19T01:14:56.748Z,100502.34
2022-08-19T01:17:02.818Z,100502.69
2022-08-19T01:19:18.878Z,100502.00
2022-08-19T01:21:30.377Z,100508.00
2022-08-19T01:23:45.071Z,100503.94
2022-08-19T01:25:53.348Z,100504.38
2022-08-19T01:27:56.782Z,100514.91
2022-08-19T01:30:08.029Z,100512.94
2022-08-19T01:32:32.264Z,100514.38
2022-08-19T01:34:36.425Z,100513.69
2022-08-19T01:36:48.293Z,100505.22
2022-08-19T01:38:50.891Z,100514.50
2022-08-19T01:40:54.078Z,100522.56
2022-08-19T01:42:56.764Z,100522.56
2022-08-19T01:44:59.435Z,100512.69
2022-08-19T01:47:02.086Z,100512.56
2022-08-19T01:49:06.662Z,100518.75
2022-08-19T01:51:10.840Z,100513.44
2022-08-19T01:53:13.801Z,100524.63
2022-08-19T01:55:22.757Z,100520.56
2022-08-19T01:57:25.446Z,100532.47
2022-08-19T01:59:29.110Z,100534.72
2022-08-19T02:01:35.008Z,100539.13
2022-08-19T02:03:37.708Z,100533.28
2022-08-19T02:05:41.904Z,100536.88
2022-08-19T02:07:45.737Z,100540.63
2022-08-19T02:09:49.294Z,100543.09
2022-08-19T02:11:52.033Z,100541.84
2022-08-19T02:13:55.985Z,100540.91
2022-08-19T02:15:59.002Z,100542.53
2022-08-19T02:18:02.641Z,100551.03
2022-08-19T02:20:08.109Z,100544.66
2022-08-19T02:22:10.735Z,100550.19
2022-08-19T02:24:13.553Z,100530.19
2022-08-19T02:26:17.043Z,100546.81
2022-08-19T02:28:19.760Z,100547.31
2022-08-19T02:30:22.750Z,100550.06
2022-08-19T02:32:25.374Z,100542.47
2022-08-19T02:34:27.970Z,100545.38
2022-08-19T02:36:31.511Z,100556.00
2022-08-19T02:38:34.494Z,100552.91
2022-08-19T02:40:37.269Z,100558.94
2022-08-19T02:42:41.929Z,100557.66
2022-08-19T02:44:44.604Z,100557.56
2022-08-19T02:46:49.033Z,100565.19
2022-08-19T02:48:56.821Z,100556.75
2022-08-19T02:51:00.552Z,100550.59
2022-08-19T02:53:03.211Z,100550.94
2022-08-19T02:55:06.686Z,100540.91
2022-08-19T02:57:09.467Z,100544.66
2022-08-19T02:59:13.170Z,100550.03
2022-08-19T03:01:25.118Z,100558.19
2022-08-19T03:03:28.352Z,100554.44
2022-08-19T03:05:56.146Z,100557.06
2022-08-19T03:07:54.028Z,100549.28
2022-08-19T03:09:56.708Z,100554.34
2022-08-19T03:11:59.331Z,100562.47
2022-08-19T03:14:03.500Z,100553.41
2022-08-19T03:16:06.859Z,100545.75
2022-08-19T03:18:09.840Z,100560.25
2022-08-19T03:20:12.605Z,100548.53
2022-08-19T03:22:16.266Z,100554.59
2022-08-19T03:24:19.946Z,100558.53
2022-08-19T03:26:22.986Z,100561.28
2022-08-19T03:28:25.709Z,100560.00
2022-08-19T03:30:28.347Z,100562.44
2022-08-19T03:32:33.110Z,100566.34
2022-08-19T03:34:38.949Z,100565.84
2022-08-19T03:36:41.981Z,100570.56
2022-08-19T03:38:48.071Z,100582.75
2022-08-19T03:40:59.342Z,100568.09
2022-08-19T03:43:02.562Z,100568.75
2022-08-19T03:45:06.202Z,100569.84
2022-08-19T03:47:08.892Z,100568.88
2022-08-19T03:49:11.762Z,100570.81
2022-08-19T03:51:31.210Z,100566.38
2022-08-19T03:53:36.177Z,100573.91
2022-08-19T03:55:42.627Z,100574.69
2022-08-19T03:57:46.954Z,100569.44
2022-08-19T03:59:49.643Z,100575.75
2022-08-19T04:01:56.984Z,100569.69
2022-08-19T04:04:00.845Z,100577.16
2022-08-19T04:06:18.830Z,100577.09
2022-08-19T04:08:23.408Z,100564.56
2022-08-19T04:10:26.243Z,100570.72
2022-08-19T04:12:29.574Z,100562.88
2022-08-19T04:14:32.830Z,100572.59
2022-08-19T04:16:35.798Z,100575.22
2022-08-19T04:18:39.781Z,100584.81
2022-08-19T04:20:45.558Z,100585.09
2022-08-19T04:22:48.082Z,100585.72
2022-08-19T04:24:50.651Z,100580.44
2022-08-19T04:26:54.046Z,100585.13
2022-08-19T04:28:56.690Z,100595.56
2022-08-19T04:30:59.725Z,100589.81
2022-08-19T04:33:02.293Z,100585.69
2022-08-19T04:35:17.026Z,100592.47
2022-08-19T04:37:20.427Z,100593.88
2022-08-19T04:39:49.713Z,100590.44
2022-08-19T04:42:10.928Z,100604.13
2022-08-19T04:44:14.487Z,100592.47
2022-08-19T04:46:40.519Z,100597.66
2022-08-19T04:48:44.936Z,100600.22
2022-08-19T04:50:58.831Z,100607.53
2022-08-19T04:53:01.449Z,100608.97
2022-08-19T04:55:06.322Z,100597.63
2022-08-19T04:57:11.095Z,100608.75
2022-08-19T04:59:15.846Z,100610.50
2022-08-19T05:01:22.522Z,100618.59
2022-08-19T05:03:30.046Z,100622.34
2022-08-19T05:05:44.980Z,100614.94
2022-08-19T05:07:48.698Z,100613.09
2022-08-19T05:09:58.478Z,100611.72
2022-08-19T05:12:02.006Z,100616.75
2022-08-19T05:14:04.614Z,100613.41
2022-08-19T05:16:07.731Z,100615.63
2022-08-19T05:18:29.468Z,100610.97
2022-08-19T05:20:50.794Z,100624.31
2022-08-19T05:22:53.662Z,100619.38
2022-08-19T05:25:11.625Z,100616.81
2022-08-19T05:27:15.302Z,100627.00
2022-08-19T05:29:20.789Z,100631.31
2022-08-19T05:31:24.990Z,100633.16
2022-08-19T05:33:27.835Z,100639.78
2022-08-19T05:35:34.674Z,100647.53
2022-08-19T05:37:37.841Z,100650.09
2022-08-19T05:39:41.635Z,100649.84
2022-08-19T05:41:45.486Z,100646.19
2022-08-19T05:43:48.113Z,100646.28
2022-08-19T05:45:51.889Z,100645.13
2022-08-19T05:47:55.069Z,100650.44
2022-08-19T05:49:57.648Z,100648.94
2022-08-19T05:52:04.923Z,100649.28
2022-08-19T05:54:09.550Z,100660.88
2022-08-19T05:56:17.574Z,100662.16
2022-08-19T05:58:20.550Z,100654.50
2022-08-19T06:00:25.848Z,100658.31
2022-08-19T06:02:29.995Z,100659.50
2022-08-19T06:04:32.633Z,100666.91
2022-08-19T06:06:36.746Z,100677.13
2022-08-19T06:08:40.069Z,100676.06
2022-08-19T06:10:42.624Z,100689.75
2022-08-19T06:12:45.213Z,100673.25
2022-08-19T06:14:47.873Z,100682.22
2022-08-19T06:17:06.891Z,100684.84
2022-08-19T06:19:14.322Z,100693.06
2022-08-19T06:21:16.965Z,100688.09
2022-08-19T06:23:20.615Z,100696.66
2022-08-19T06:25:30.457Z,100692.44
2022-08-19T06:27:34.499Z,100690.91
2022-08-19T06:29:37.035Z,100703.91
2022-08-19T06:31:46.032Z,100693.22
2022-08-19T06:33:50.216Z,100703.31
2022-08-19T06:35:53.395Z,100709.69
2022-08-19T06:37:56.351Z,100704.34
2022-08-19T06:39:59.110Z,100711.38
2022-08-19T06:42:04.868Z,100714.38
2022-08-19T06:44:08.700Z,100708.19
2022-08-19T06:46:17.659Z,100724.31
2022-08-19T06:48:20.676Z,100717.56
2022-08-19T06:50:25.027Z,100713.09
2022-08-19T06:52:27.791Z,100714.06
2022-08-19T06:54:31.594Z,100715.00
2022-08-19T06:56:40.762Z,100716.34
2022-08-19T06:58:43.383Z,100726.44
2022-08-19T07:00:45.989Z,100718.88
2022-08-19T07:02:54.297Z,100723.84
2022-08-19T07:05:06.704Z,100721.22
2022-08-19T07:07:20.005Z,100725.38
2022-08-19T07:09:23.748Z,100727.09
2022-08-19T07:11:26.496Z,100727.56
2022-08-19T07:13:33.752Z,100725.66
2022-08-19T07:15:39.772Z,100722.94
2022-08-19T07:17:44.434Z,100723.78
2022-08-19T07:19:47.317Z,100723.13
2022-08-19T07:21:53.808Z,100710.63
2022-08-19T07:24:01.841Z,100733.66
2022-08-19T07:26:15.253Z,100725.84
2022-08-19T07:28:24.276Z,100734.72
2022-08-19T07:30:27.715Z,100733.28
2022-08-19T07:32:32.604Z,100745.16
2022-08-19T07:34:38.245Z,100739.72
2022-08-19T07:36:44.996Z,100743.78
2022-08-19T07:38:50.678Z,100750.16
2022-08-19T07:40:53.347Z,100742.53
2022-08-19T07:42:56.166Z,100756.44
2022-08-19T07:44:59.892Z,100747.44
2022-08-19T07:47:03.319Z,100762.94
2022-08-19T07:49:09.249Z,100758.69
2022-08-19T07:51:14.416Z,100751.47
2022-08-19T07:53:39.624Z,100750.09
2022-08-19T07:55:43.984Z,100756.94
2022-08-19T07:57:46.763Z,100758.19
2022-08-19T07:59:49.376Z,100757.84
2022-08-19T08:01:52.619Z,100765.94
2022-08-19T08:04:15.786Z,100744.03
2022-08-19T08:06:37.006Z,100757.63
2022-08-19T08:09:02.701Z,100761.00
2022-08-19T08:11:10.371Z,100752.41
2022-08-19T08:13:13.539Z,100757.75
2022-08-19T08:15:17.626Z,100760.34
2022-08-19T08:17:30.872Z,100770.09
2022-08-19T08:19:45.819Z,100765.78
2022-08-19T08:21:50.036Z,100764.25
2022-08-19T08:23:56.698Z,100769.28
2022-08-19T08:26:00.201Z,100759.31
2022-08-19T08:28:05.889Z,100766.22
2022-08-19T08:30:20.292Z,100764.47
2022-08-19T08:32:22.999Z,100763.47
2022-08-19T08:34:25.652Z,100765.06
2022-08-19T08:36:28.888Z,100769.63
2022-08-19T08:38:39.110Z,100775.72
2022-08-19T08:40:57.020Z,100767.47
2022-08-19T08:43:06.369Z,100776.34
2022-08-19T08:45:17.967Z,100776.47
2022-08-19T08:47:23.375Z,100781.41
2022-08-19T08:49:46.625Z,100779.59
2022-08-19T08:52:02.317Z,100790.50
2022-08-19T08:54:14.114Z,100778.09
2022-08-19T08:56:18.459Z,100775.63
2022-08-19T08:58:29.744Z,100787.25
2022-08-19T09:00:38.099Z,100785.69
2022-08-19T09:02:40.801Z,100778.22
2022-08-19T09:04:46.671Z,100782.41
2022-08-19T09:07:08.644Z,100781.22
2022-08-19T09:09:36.074Z,100777.28
2022-08-19T09:12:00.747Z,100786.13
2022-08-19T09:14:34.937Z,100789.81
2022-08-19T09:16:35.882Z,100785.91
2022-08-19T09:18:53.969Z,100786.91
2022-08-19T09:20:57.947Z,100796.53
2022-08-19T09:23:00.769Z,100793.00
2022-08-19T09:25:06.050Z,100795.41
2022-08-19T09:27:18.572Z,100788.31
2022-08-19T09:29:22.456Z,100789.47
2022-08-19T09:31:28.611Z,100782.25
2022-08-19T09:33:32.335Z,100788.06
2022-08-19T09:35:49.414Z,100791.84
2022-08-19T09:37:57.667Z,100792.75
2022-08-19T09:40:03.211Z,100796.44
2022-08-19T09:42:16.448Z,100796.47
2022-08-19T09:44:35.647Z,100800.50
2022-08-19T09:46:38.663Z,100806.56
2022-08-19T09:48:42.368Z,100810.66
2022-08-19T09:50:51.726Z,100806.72
2022-08-19T09:52:56.976Z,100818.44
2022-08-19T09:55:00.682Z,100819.22
2022-08-19T09:57:10.071Z,100822.78
2022-08-19T09:59:13.259Z,100826.47
2022-08-19T10:01:25.324Z,100826.59
2022-08-19T10:03:29.920Z,100828.25
2022-08-19T10:05:55.261Z,100818.69
2022-08-19T10:07:58.593Z,100816.31
2022-08-19T10:10:01.193Z,100814.72
2022-08-19T10:12:06.137Z,100821.16
2022-08-19T10:14:09.272Z,100821.16
2022-08-19T10:16:19.597Z,100809.56
2022-08-19T10:18:25.535Z,100807.19
2022-08-19T10:20:30.514Z,100803.72
2022-08-19T10:22:33.361Z,100811.75
2022-08-19T10:24:36.084Z,100819.44
2022-08-19T10:26:43.076Z,100815.47
2022-08-19T10:28:47.197Z,100817.91
2022-08-19T10:30:49.840Z,100809.50
2022-08-19T10:32:52.566Z,100812.84
2022-08-19T10:34:57.042Z,100812.84
2022-08-19T10:37:01.847Z,100812.50
2022-08-19T10:39:08.969Z,100826.13
2022-08-19T10:41:20.991Z,100805.59
2022-08-19T10:43:23.841Z,100804.13
2022-08-19T10:45:28.114Z,100809.00
2022-08-19T10:47:31.619Z,100806.75
2022-08-19T10:49:54.454Z,100803.63
2022-08-19T10:52:20.257Z,100801.31
2022-08-19T10:54:44.887Z,100807.41
2022-08-19T10:56:54.037Z,100807.78
2022-08-19T10:58:57.890Z,100811.84
2022-08-19T11:01:00.564Z,100815.53
2022-08-19T11:03:03.151Z,100820.81
2022-08-19T11:05:12.749Z,100819.19
2022-08-19T11:07:16.489Z,100825.63
2022-08-19T11:09:22.704Z,100824.84
2022-08-19T11:11:25.319Z,100812.84
2022-08-19T11:13:37.893Z,100815.38
2022-08-19T11:15:40.560Z,100804.91
2022-08-19T11:17:44.820Z,100817.41
2022-08-19T11:19:49.433Z,100810.59
2022-08-19T11:21:54.854Z,100825.91
2022-08-19T11:24:10.784Z,100812.59
2022-08-19T11:26:13.701Z,100821.91
2022-08-19T11:28:16.338Z,100823.50
2022-08-19T11:30:19.044Z,100817.13
2022-08-19T11:32:21.696Z,100806.63
2022-08-19T11:34:28.650Z,100801.03
2022-08-19T11:36:33.569Z,100811.09
2022-08-19T11:38:36.947Z,100806.69
2022-08-19T11:40:39.497Z,100803.84
2022-08-19T11:42:57.872Z,100821.56
2022-08-19T11:45:00.458Z,100808.28
2022-08-19T11:47:08.808Z,100811.13
2022-08-19T11:49:14.143Z,100817.16
2022-08-19T11:51:20.649Z,100814.34
2022-08-19T11:53:23.667Z,100815.09
2022-08-19T11:55:26.381Z,100811.47
2022-08-19T11:57:28.955Z,100811.47
2022-08-19T11:59:31.829Z,100796.13
2022-08-19T12:01:34.862Z,100808.59
2022-08-19T12:03:39.083Z,100806.56
2022-08-19T12:05:42.400Z,100805.75
2022-08-19T12:07:45.058Z,100800.88
2022-08-19T12:09:48.661Z,100813.81
2022-08-19T12:11:52.015Z,100811.78
2022-08-19T12:13:55.437Z,100809.78
2022-08-19T12:15:59.385Z,100797.25
2022-08-19T12:18:02.062Z,100815.38
2022-08-19T12:20:07.224Z,100815.31
2022-08-19T12:22:09.848Z,100800.69
2022-08-19T12:24:12.513Z,100799.00
2022-08-19T12:26:15.425Z,100806.28
2022-08-19T12:28:21.696Z,100801.00
2022-08-19T12:30:24.475Z,100795.69
2022-08-19T12:32:27.609Z,100790.69
2022-08-19T12:34:31.495Z,100789.00
2022-08-19T12:36:34.905Z,100793.38
2022-08-19T12:38:39.891Z,100791.72
2022-08-19T12:40:43.047Z,100799.53
2022-08-19T12:42:45.696Z,100794.91
2022-08-19T12:44:48.724Z,100807.91
2022-08-19T12:46:53.920Z,100794.03
2022-08-19T12:48:57.783Z,100799.06
2022-08-19T12:51:06.871Z,100792.84
2022-08-19T12:53:10.085Z,100792.13
2022-08-19T12:55:13.353Z,100786.13
2022-08-19T12:57:16.539Z,100786.94
2022-08-19T12:59:20.084Z,100791.22
2022-08-19T13:01:23.463Z,100797.72
2022-08-19T13:03:30.393Z,100796.03
2022-08-19T13:05:35.265Z,100794.38
2022-08-19T13:07:39.791Z,100789.97
2022-08-19T13:09:43.676Z,100789.56
2022-08-19T13:11:46.227Z,100787.34
2022-08-19T13:13:52.076Z,100788.28
2022-08-19T13:16:03.442Z,100782.63
2022-08-19T13:18:06.541Z,100780.44
2022-08-19T13:20:10.830Z,100782.34
2022-08-19T13:22:15.164Z,100782.66
2022-08-19T13:24:18.824Z,100786.53
2022-08-19T13:26:22.275Z,100781.22
2022-08-19T13:28:29.218Z,100776.63
2022-08-19T13:30:50.672Z,100778.75
2022-08-19T13:33:11.876Z,100779.59
2022-08-19T13:35:16.828Z,100782.91
2022-08-19T13:37:39.608Z,100775.84
2022-08-19T13:39:42.336Z,100777.94
2022-08-19T13:41:49.121Z,100771.66
2022-08-19T13:43:51.785Z,100777.44
2022-08-19T13:45:58.751Z,100781.38
2022-08-19T13:48:07.610Z,100778.69
2022-08-19T13:50:16.838Z,100778.00
2022-08-19T13:52:19.775Z,100774.94
2022-08-19T13:54:22.874Z,100784.94
2022-08-19T13:56:26.523Z,100790.84
2022-08-19T13:58:29.333Z,100781.22
2022-08-19T14:00:37.374Z,100777.81
2022-08-19T14:02:40.891Z,100783.69
2022-08-19T14:04:43.699Z,100777.53
2022-08-19T14:06:46.253Z,100782.75
2022-08-19T14:08:48.900Z,100772.34
2022-08-19T14:10:51.646Z,100779.34
2022-08-19T14:12:56.817Z,100773.59
2022-08-19T14:15:00.003Z,100775.59
2022-08-19T14:17:02.640Z,100770.91
2022-08-19T14:19:05.392Z,100764.25
2022-08-19T14:21:08.697Z,100772.09
2022-08-19T14:23:13.303Z,100782.44
2022-08-19T14:25:20.196Z,100780.66
2022-08-19T14:27:24.510Z,100783.88
2022-08-19T14:29:30.015Z,100778.31
2022-08-19T14:31:32.560Z,100785.13
2022-08-19T14:33:35.197Z,100793.50
2022-08-19T14:35:38.203Z,100794.66
2022-08-19T14:37:45.594Z,100792.88
2022-08-19T14:39:58.711Z,100798.19
2022-08-19T14:42:01.318Z,100804.06
2022-08-19T14:44:04.797Z,100802.97
2022-08-19T14:46:10.514Z,100805.81
2022-08-19T14:48:19.266Z,100797.72
2022-08-19T14:50:22.242Z,100801.88
2022-08-19T14:52:24.948Z,100807.94
2022-08-19T14:54:27.542Z,100795.16
2022-08-19T14:56:32.982Z,100808.91
2022-08-19T14:58:38.927Z,100797.16
2022-08-19T15:00:41.675Z,100805.84
2022-08-19T15:02:47.136Z,100812.13
2022-08-19T15:04:58.494Z,100798.97
2022-08-19T15:07:03.568Z,100798.91
2022-08-19T15:09:07.068Z,100806.78
2022-08-19T15:11:15.865Z,100807.91
2022-08-19T15:13:18.958Z,100810.50
2022-08-19T15:15:23.210Z,100806.53
2022-08-19T15:17:41.394Z,100811.84
2022-08-19T15:19:48.327Z,100805.06
2022-08-19T15:21:51.442Z,100802.63
2022-08-19T15:23:54.700Z,100808.25
2022-08-19T15:25:57.265Z,100804.94
2022-08-19T15:28:01.254Z,100806.50
2022-08-19T15:30:05.171Z,100810.41
2022-08-19T15:32:09.049Z,100817.09
2022-08-19T15:34:11.810Z,100809.88
2022-08-19T15:36:14.372Z,100821.56
2022-08-19T15:38:26.039Z,100821.91
2022-08-19T15:40:28.714Z,100827.00
2022-08-19T15:42:31.267Z,100818.53
2022-08-19T15:44:34.565Z,100824.53
2022-08-19T15:46:40.089Z,100819.75
2022-08-19T15:48:42.665Z,100816.47
2022-08-19T15:50:45.263Z,100813.53
2022-08-19T15:52:55.502Z,100821.94
2022-08-19T15:55:00.458Z,100813.41
2022-08-19T15:57:21.650Z,100821.41
2022-08-19T15:59:47.279Z,100820.94
2022-08-19T16:02:16.600Z,100814.38
2022-08-19T16:04:38.263Z,100813.06
2022-08-19T16:06:44.220Z,100822.03
2022-08-19T16:08:50.256Z,100820.19
2022-08-19T16:10:52.817Z,100820.84
2022-08-19T16:12:57.698Z,100828.34
2022-08-19T16:15:00.595Z,100831.50
2022-08-19T16:17:03.531Z,100832.22
2022-08-19T16:19:10.383Z,100833.28
2022-08-19T16:21:19.356Z,100833.94
2022-08-19T16:23:22.673Z,100831.66
2022-08-19T16:25:28.719Z,100836.63
2022-08-19T16:27:31.379Z,100834.34
2022-08-19T16:29:39.480Z,100841.28
2022-08-19T16:31:45.070Z,100844.84
2022-08-19T16:33:47.944Z,100850.72
2022-08-19T16:36:00.108Z,100831.31
2022-08-19T16:38:10.128Z,100848.63
2022-08-19T16:40:13.193Z,100838.50
2022-08-19T16:42:15.849Z,100838.22
2022-08-19T16:44:19.743Z,100832.34
2022-08-19T16:46:26.811Z,100844.25
2022-08-19T16:48:31.121Z,100840.03
2022-08-19T16:50:48.814Z,100850.34
2022-08-19T16:52:52.242Z,100847.84
2022-08-19T16:54:55.200Z,100854.31
2022-08-19T16:56:58.608Z,100851.16
2022-08-19T16:59:01.400Z,100840.94
2022-08-19T17:01:06.250Z,100853.78
2022-08-19T17:03:14.662Z,100849.13
2022-08-19T17:05:17.710Z,100841.94
2022-08-19T17:07:20.306Z,100849.28
2022-08-19T17:09:26.128Z,100851.88
2022-08-19T17:11:31.408Z,100847.19
2022-08-19T17:13:34.865Z,100858.59
2022-08-19T17:15:37.757Z,100852.34
2022-08-19T17:17:40.424Z,100858.13
2022-08-19T17:19:43.635Z,100854.78
2022-08-19T17:21:46.295Z,100861.81
2022-08-19T17:23:49.806Z,100859.28
2022-08-19T17:25:52.524Z,100856.22
2022-08-19T17:27:55.572Z,100854.97
2022-08-19T17:30:00.053Z,100855.84
2022-08-19T17:32:02.907Z,100851.22
2022-08-19T17:34:05.512Z,100848.94
2022-08-19T17:36:10.575Z,100859.44
2022-08-19T17:38:16.698Z,100860.44
2022-08-19T17:40:21.288Z,100851.47
2022-08-19T17:42:26.871Z,100849.56
2022-08-19T17:44:29.500Z,100857.38
2022-08-19T17:46:32.536Z,100856.59
2022-08-19T17:48:39.263Z,100860.34
2022-08-19T17:50:42.893Z,100865.13
2022-08-19T17:52:48.077Z,100862.53
2022-08-19T17:54:50.685Z,100862.78
2022-08-19T17:56:53.623Z,100871.06
2022-08-19T17:59:00.155Z,100869.09
2022-08-19T18:01:04.109Z,100869.19
2022-08-19T18:03:08.534Z,100867.81
2022-08-19T18:05:15.091Z,100864.78
2022-08-19T18:07:21.740Z,100868.72
2022-08-19T18:09:41.162Z,100854.00
2022-08-19T18:11:44.978Z,100854.81
2022-08-19T18:13:55.487Z,100858.66
2022-08-19T18:16:01.054Z,100862.47
2022-08-19T18:18:03.714Z,100864.78
2022-08-19T18:20:18.635Z,100861.66
2022-08-19T18:22:42.391Z,100861.66
2022-08-19T18:24:45.890Z,100865.38
2022-08-19T18:26:49.424Z,100853.41
2022-08-19T18:28:52.508Z,100865.59
2022-08-19T18:30:56.330Z,100869.75
2022-08-19T18:32:59.913Z,100864.72
2022-08-19T18:35:05.318Z,100868.47
2022-08-19T18:37:08.102Z,100873.34
2022-08-19T18:39:47.864Z,100869.63
2022-08-19T18:42:08.932Z,100876.91
2022-08-19T18:44:29.960Z,100868.63
2022-08-19T18:46:51.643Z,100883.38
2022-08-19T18:49:07.093Z,100872.63
2022-08-19T18:51:10.413Z,100871.94
2022-08-19T18:53:14.233Z,100871.53
2022-08-19T18:55:18.513Z,100877.19
2022-08-19T18:57:24.949Z,100880.66
2022-08-19T18:59:29.778Z,100871.03
2022-08-19T19:01:37.674Z,100868.56
2022-08-19T19:03:53.551Z,100879.69
2022-08-19T19:05:56.181Z,100870.75
2022-08-19T19:08:00.671Z,100879.91
2022-08-19T19:10:04.229Z,100872.59
2022-08-19T19:12:10.568Z,100880.44
2022-08-19T19:14:32.829Z,100886.69
2022-08-19T19:16:43.642Z,100896.06
2022-08-19T19:18:47.703Z,100901.94
2022-08-19T19:20:50.274Z,100900.66
2022-08-19T19:22:56.011Z,100905.75
2022-08-19T19:25:00.840Z,100896.81
2022-08-19T19:27:07.113Z,100903.38
2022-08-19T19:29:09.751Z,100900.31
2022-08-19T19:31:16.221Z,100901.97
2022-08-19T19:33:19.821Z,100897.91
2022-08-19T19:35:22.966Z,100899.84
2022-08-19T19:37:25.958Z,100901.81
2022-08-19T19:39:44.928Z,100907.69
2022-08-19T19:41:49.710Z,100908.38
2022-08-19T19:44:30.084Z,100897.94
2022-08-19T19:46:21.425Z,100910.75
2022-08-19T19:48:24.901Z,100911.06
2022-08-19T19:50:31.355Z,100912.22
2022-08-19T19:52:34.081Z,100911.41
2022-08-19T19:54:37.988Z,100904.06
2022-08-19T19:56:43.686Z,100919.13
2022-08-19T19:58:46.491Z,100920.72
2022-08-19T20:00:49.154Z,100916.34
2022-08-19T20:02:55.444Z,100925.97
2022-08-19T20:04:58.950Z,100923.50
2022-08-19T20:07:01.609Z,100925.81
2022-08-19T20:09:17.580Z,100924.03
2022-08-19T20:11:36.823Z,100921.13
2022-08-19T20:13:40.860Z,100921.44
2022-08-19T20:15:47.008Z,100922.94
2022-08-19T20:17:49.668Z,100920.81
2022-08-19T20:19:53.672Z,100923.13
2022-08-19T20:21:57.575Z,100923.78
2022-08-19T20:24:09.633Z,100923.97
2022-08-19T20:26:14.832Z,100920.22
2022-08-19T20:28:35.085Z,100921.72
2022-08-19T20:30:43.769Z,100927.59
2022-08-19T20:32:50.579Z,100921.91
2022-08-19T20:34:53.264Z,100916.34
2022-08-19T20:36:56.123Z,100918.13
2022-08-19T20:38:59.198Z,100913.25
2022-08-19T20:41:02.693Z,100918.66
2022-08-19T20:43:10.746Z,100919.97
2022-08-19T20:45:32.334Z,100928.63
2022-08-19T20:47:36.770Z,100927.97
2022-08-19T20:49:39.557Z,100930.25
2022-08-19T20:51:42.269Z,100932.72
2022-08-19T20:53:45.312Z,100927.84
2022-08-19T20:55:52.141Z,100933.38
2022-08-19T20:57:55.255Z,100930.09
2022-08-19T20:59:58.003Z,100933.53
2022-08-19T21:02:00.747Z,100934.66
2022-08-19T21:04:04.133Z,100933.34
2022-08-19T21:06:07.455Z,100929.59
2022-08-19T21:08:11.536Z,100927.00
2022-08-19T21:10:16.761Z,100921.31
2022-08-19T21:12:19.753Z,100923.59
2022-08-19T21:14:23.355Z,100924.22
2022-08-19T21:16:27.043Z,100928.81
2022-08-19T21:18:29.747Z,100930.28
2022-08-19T21:20:32.611Z,100924.06
2022-08-19T21:22:35.261Z,100921.47
2022-08-19T21:24:38.242Z,100901.56
2022-08-19T21:26:41.400Z,100931.09
2022-08-19T21:28:44.034Z,100924.56
2022-08-19T21:30:47.001Z,100919.84
2022-08-19T21:32:52.553Z,100925.56
2022-08-19T21:34:55.517Z,100924.06
2022-08-19T21:36:58.261Z,100919.50
2022-08-19T21:39:01.074Z,100922.13
2022-08-19T21:41:06.493Z,100920.31
2022-08-19T21:43:09.491Z,100924.06
2022-08-19T21:45:13.598Z,100929.13
2022-08-19T21:47:16.458Z,100922.59
2022-08-19T21:49:19.855Z,100923.53
2022-08-19T21:51:22.596Z,100915.56
2022-08-19T21:53:25.275Z,100916.19
2022-08-19T21:55:34.489Z,100919.31
2022-08-19T21:57:37.297Z,100925.66
2022-08-19T21:59:43.524Z,100922.41
2022-08-19T22:01:52.003Z,100929.41
2022-08-19T22:03:59.422Z,100920.59
2022-08-19T22:06:02.164Z,100925.63
2022-08-19T22:08:05.025Z,100924.94
2022-08-19T22:10:08.155Z,100927.22
2022-08-19T22:12:22.013Z,100921.19
2022-08-19T22:14:24.718Z,100928.19
2022-08-19T22:16:27.475Z,100928.50
2022-08-19T22:18:32.374Z,100926.88
2022-08-19T22:20:35.480Z,100924.91
2022-08-19T22:22:39.927Z,100936.00
2022-08-19T22:24:42.670Z,100928.50
2022-08-19T22:26:45.264Z,100930.16
2022-08-19T22:28:48.002Z,100930.16
2022-08-19T22:30:52.370Z,100934.03
2022-08-19T22:33:02.340Z,100930.78
2022-08-19T22:35:08.454Z,100931.41
2022-08-19T22:37:11.293Z,100928.63
2022-08-19T22:39:13.964Z,100938.56
2022-08-19T22:41:16.569Z,100941.66
2022-08-19T22:43:22.261Z,100934.81
2022-08-19T22:45:24.993Z,100947.34
2022-08-19T22:47:31.988Z,100951.22
2022-08-19T22:49:36.937Z,100949.09
2022-08-19T22:51:58.173Z,100936.22
2022-08-19T22:54:02.556Z,100947.63
2022-08-19T22:56:10.844Z,100939.63
2022-08-19T22:58:17.574Z,100951.50
2022-08-19T23:00:31.690Z,100946.28
2022-08-19T23:02:38.576Z,100944.16
2022-08-19T23:04:54.717Z,100951.97
2022-08-19T23:06:57.429Z,100951.28
2022-08-19T23:09:00.093Z,100947.22
2022-08-19T23:11:02.745Z,100954.72
2022-08-19T23:13:06.764Z,100956.97
2022-08-19T23:15:16.664Z,100958.09
2022-08-19T23:17:20.507Z,100950.94
2022-08-19T23:19:23.236Z,100958.09
2022-08-19T23:21:26.639Z,100951.88
2022-08-19T23:23:29.464Z,100960.06
2022-08-19T23:25:34.781Z,100967.03
2022-08-19T23:27:56.086Z,100962.16
2022-08-19T23:30:17.451Z,100972.19
2022-08-19T23:32:21.450Z,100969.56
2022-08-19T23:34:24.071Z,100972.13
2022-08-19T23:36:27.253Z,100969.72
2022-08-19T23:38:34.890Z,100976.34
2022-08-19T23:40:38.992Z,100971.78
2022-08-19T23:42:42.361Z,100972.91
2022-08-19T23:44:52.132Z,100979.06
2022-08-19T23:46:55.758Z,100984.72
2022-08-19T23:48:59.901Z,100983.91
2022-08-19T23:51:05.557Z,100982.59
2022-08-19T23:53:13.314Z,100991.69
2022-08-19T23:55:18.954Z,100988.75
2022-08-19T23:57:21.611Z,100992.13
2022-08-19T23:59:24.423Z,100991.16
